Time;durP1;ratioP1;P1;durP2;ratioP2;P2;SDS_P1;SDS_P2;PMS_P1;PMS_P2;Temp;Humidity;BMP_temperature;BMP_pressure;BME280_temperature;BME280_humidity;BME280_pressure;Samples;Min_cycle;Max_cycle;Signal;HPM_P1;HPM_P2
2022/05/27 00:00:49;;;;;;;9.57;2.28;;;14.10;99.90;;;;;;4878609;29;20052;-79
2022/05/27 00:03:16;;;;;;;9.57;2.22;;;14.00;99.90;;;;;;4919166;29;20410;-80
2022/05/27 00:05:42;;;;;;;14.02;2.63;;;14.10;99.90;;;;;;4920530;29;20052;-80
2022/05/27 00:08:09;;;;;;;13.88;2.45;;;14.00;99.90;;;;;;4922415;29;20127;-80
2022/05/27 00:10:35;;;;;;;9.65;2.40;;;14.10;99.90;;;;;;4908978;29;20056;-80
2022/05/27 00:13:01;;;;;;;11.95;2.55;;;14.00;99.90;;;;;;4921776;29;20079;-79
2022/05/27 00:15:27;;;;;;;9.48;2.30;;;14.00;99.90;;;;;;4924398;29;20052;-80
2022/05/27 00:17:53;;;;;;;12.60;2.30;;;13.70;99.90;;;;;;4874199;29;20074;-80
2022/05/27 00:20:19;;;;;;;11.80;2.58;;;14.00;99.90;;;;;;4907544;29;20052;-80
2022/05/27 00:22:44;;;;;;;8.27;2.17;;;13.90;99.90;;;;;;4898031;29;20052;-80
2022/05/27 00:25:10;;;;;;;9.25;2.50;;;13.90;99.90;;;;;;4922016;29;20184;-79
2022/05/27 00:27:36;;;;;;;9.35;2.40;;;13.90;99.90;;;;;;4913183;29;20513;-80
2022/05/27 00:30:03;;;;;;;7.72;2.03;;;13.80;99.90;;;;;;4924731;29;20528;-80
2022/05/27 00:32:30;;;;;;;9.25;2.33;;;13.80;99.90;;;;;;4896948;29;20044;-80
2022/05/27 00:34:55;;;;;;;8.80;2.45;;;13.80;99.90;;;;;;4891238;29;20095;-81
2022/05/27 00:37:21;;;;;;;12.32;2.78;;;13.70;99.90;;;;;;4907430;29;20044;-83
2022/05/27 00:39:47;;;;;;;10.75;2.50;;;13.70;99.90;;;;;;4909738;29;20486;-80
2022/05/27 00:42:12;;;;;;;8.63;2.00;;;13.60;99.90;;;;;;4908996;29;20037;-80
2022/05/27 00:44:38;;;;;;;12.18;2.78;;;13.60;99.90;;;;;;4874923;29;20055;-80
2022/05/27 00:47:09;;;;;;;10.80;2.22;;;13.60;99.90;;;;;;4886596;29;20451;-81
2022/05/27 00:50:08;;;;;;;11.02;2.63;;;13.60;99.90;;;;;;4906000;29;20517;-81
2022/05/27 00:52:37;;;;;;;8.07;1.90;;;13.60;99.90;;;;;;4893836;29;20050;-81
2022/05/27 00:55:07;;;;;;;9.70;2.45;;;13.60;99.90;;;;;;4911847;29;20048;-81
2022/05/27 00:57:38;;;;;;;14.88;2.35;;;13.60;99.90;;;;;;4895807;29;20474;-81
2022/05/27 01:00:08;;;;;;;11.82;2.67;;;13.60;99.90;;;;;;4890839;29;20047;-81
2022/05/27 01:02:35;;;;;;;9.70;2.10;;;13.50;99.90;;;;;;4912818;29;20052;-81
2022/05/27 01:05:02;;;;;;;12.00;2.85;;;13.50;99.90;;;;;;4891818;29;20568;-81
2022/05/27 01:07:28;;;;;;;11.68;2.67;;;13.50;99.90;;;;;;4906730;29;20055;-81
2022/05/27 01:09:55;;;;;;;8.10;2.30;;;13.50;99.90;;;;;;4905741;29;20048;-81
2022/05/27 01:13:05;;;;;;;9.88;2.65;;;13.40;99.90;;;;;;4892843;29;20092;-81
2022/05/27 01:15:34;;;;;;;10.30;1.90;;;13.40;99.90;;;;;;4891250;29;20060;-81
2022/05/27 01:21:30;;;;;;;10.07;2.33;;;13.30;99.90;;;;;;4912470;29;20052;-81
2022/05/27 01:24:16;;;;;;;10.07;2.70;;;13.30;99.90;;;;;;4890310;29;20048;-81
2022/05/27 01:26:56;;;;;;;11.43;2.00;;;13.30;99.90;;;;;;4904569;29;20051;-81
2022/05/27 01:29:31;;;;;;;11.15;2.55;;;13.30;99.90;;;;;;4925601;29;20454;-81
2022/05/27 01:32:29;;;;;;;10.00;2.30;;;13.20;99.90;;;;;;4908337;29;20090;-81
2022/05/27 01:35:14;;;;;;;10.18;2.10;;;13.20;99.90;;;;;;4903954;29;20465;-82
2022/05/27 01:38:01;;;;;;;6.65;1.98;;;13.20;99.90;;;;;;4908441;29;20205;-81
2022/05/27 01:40:44;;;;;;;9.15;2.45;;;13.20;99.90;;;;;;4907665;29;20199;-81
2022/05/27 01:43:22;;;;;;;11.43;2.47;;;13.20;99.90;;;;;;4897537;29;20839;-81
2022/05/27 01:45:59;;;;;;;14.02;2.60;;;13.20;99.90;;;;;;4923369;29;20058;-81
2022/05/27 01:48:48;;;;;;;;;;;13.20;99.90;;;;;;4923588;29;20083;-82
2022/05/27 01:51:34;;;;;;;10.75;2.28;;;13.10;99.90;;;;;;4876784;29;19929;-81
2022/05/27 01:54:18;;;;;;;10.25;2.83;;;13.10;99.90;;;;;;4905970;29;20130;-81
2022/05/27 01:56:49;;;;;;;14.93;3.45;;;13.10;99.90;;;;;;4905945;29;20052;-81
2022/05/27 01:59:25;;;;;;;10.35;2.47;;;13.20;99.90;;;;;;4905758;29;20052;-81
2022/05/27 02:02:11;;;;;;;10.23;2.33;;;13.10;99.90;;;;;;4918060;29;20103;-80
2022/05/27 02:04:48;;;;;;;11.48;2.60;;;13.10;99.90;;;;;;4896014;29;20135;-81
2022/05/27 02:07:23;;;;;;;9.80;2.35;;;13.10;99.90;;;;;;4917231;29;20574;-81
2022/05/27 02:09:55;;;;;;;10.85;2.60;;;13.10;99.90;;;;;;4910070;29;20107;-81
2022/05/27 02:12:25;;;;;;;12.18;2.78;;;13.00;99.90;;;;;;4897444;29;20052;-81
2022/05/27 02:15:10;;;;;;;15.60;2.92;;;13.00;99.90;;;;;;4905002;29;20503;-81
2022/05/27 02:17:43;;;;;;;11.63;2.58;;;13.00;99.90;;;;;;4892249;29;20195;-81
2022/05/27 02:20:16;;;;;;;13.65;2.55;;;13.10;99.90;;;;;;4895837;29;20371;-80
2022/05/27 02:22:48;;;;;;;12.57;2.28;;;13.10;99.90;;;;;;4911917;29;20490;-80
2022/05/27 02:25:22;;;;;;;10.15;3.10;;;13.10;99.90;;;;;;4905956;29;20127;-81
2022/05/27 02:28:17;;;;;;;11.60;3.25;;;13.10;99.90;;;;;;4906617;29;20329;-80
2022/05/27 02:30:46;;;;;;;11.43;2.38;;;13.10;99.90;;;;;;4907347;29;20591;-80
2022/05/27 02:36:14;;;;;;;8.05;2.30;;;13.00;99.90;;;;;;4904563;29;20087;-79
2022/05/27 02:38:40;;;;;;;8.98;2.10;;;13.00;99.90;;;;;;4905550;29;20131;-80
2022/05/27 02:41:16;;;;;;;8.50;2.13;;;13.00;99.90;;;;;;4922039;29;20482;-80
2022/05/27 02:43:41;;;;;;;;;;;12.90;99.90;;;;;;4912497;29;20410;-80
2022/05/27 02:46:26;;;;;;;8.07;1.83;;;12.90;99.90;;;;;;4909635;29;19942;-80
2022/05/27 02:49:06;;;;;;;8.18;2.28;;;12.90;99.90;;;;;;4905732;29;20062;-80
2022/05/27 02:51:53;;;;;;;9.48;1.98;;;12.80;99.90;;;;;;4912152;29;20059;-81
2022/05/27 02:54:25;;;;;;;8.45;2.00;;;12.80;99.90;;;;;;4904678;29;20048;-79
2022/05/27 02:57:00;;;;;;;9.95;2.25;;;12.80;99.90;;;;;;4919886;29;20372;-79
2022/05/27 02:59:28;;;;;;;9.55;2.05;;;12.70;99.90;;;;;;4923208;29;20451;-79
2022/05/27 03:01:54;;;;;;;10.00;2.13;;;12.70;99.90;;;;;;4896648;29;20054;-80
2022/05/27 03:04:21;;;;;;;6.43;1.85;;;12.70;99.90;;;;;;4907672;29;20099;-79
2022/05/27 03:07:03;;;;;;;6.78;2.20;;;12.70;99.90;;;;;;4908948;29;20052;-80
2022/05/27 03:09:28;;;;;;;7.15;1.65;;;12.70;99.90;;;;;;4907138;29;20056;-80
2022/05/27 03:12:13;;;;;;;7.35;1.73;;;12.70;99.90;;;;;;4910778;29;20103;-80
2022/05/27 03:15:10;;;;;;;8.10;2.10;;;12.70;99.90;;;;;;4920819;29;20052;-80
2022/05/27 03:17:49;;;;;;;11.73;2.33;;;12.70;99.90;;;;;;4894902;29;20081;-81
2022/05/27 03:20:39;;;;;;;7.13;2.00;;;12.70;99.90;;;;;;4906133;29;20044;-80
2022/05/27 03:23:14;;;;;;;6.93;2.10;;;12.70;99.90;;;;;;4894284;29;20048;-80
2022/05/27 03:25:49;;;;;;;7.85;1.95;;;12.70;99.90;;;;;;4905725;29;20053;-80
2022/05/27 03:28:29;;;;;;;11.90;2.28;;;12.80;99.90;;;;;;4894451;29;20059;-81
2022/05/27 03:31:22;;;;;;;8.68;2.08;;;12.70;99.90;;;;;;4892489;29;20063;-79
2022/05/27 03:34:12;;;;;;;6.80;2.53;;;12.80;99.90;;;;;;4921549;29;20052;-80
2022/05/27 03:37:10;;;;;;;10.23;2.00;;;12.80;99.90;;;;;;4903982;29;20044;-80
2022/05/27 03:40:01;;;;;;;8.50;2.08;;;12.80;99.90;;;;;;4920633;29;20040;-80
2022/05/27 03:42:30;;;;;;;8.18;2.42;;;13.60;99.90;;;;;;4891698;29;20060;-80
2022/05/27 03:45:01;;;;;;;9.35;2.17;;;12.80;99.90;;;;;;4903017;29;20056;-80
2022/05/27 03:47:27;;;;;;;7.40;2.10;;;11.70;99.90;;;;;;4909206;29;20066;-80
2022/05/27 03:49:53;;;;;;;9.35;2.38;;;12.80;99.90;;;;;;4892535;29;20056;-80
2022/05/27 03:52:22;;;;;;;11.43;2.88;;;12.80;99.90;;;;;;4893756;29;20147;-80
2022/05/27 03:54:48;;;;;;;7.40;2.17;;;12.80;99.90;;;;;;4909345;29;20548;-80
2022/05/27 03:57:13;;;;;;;6.75;1.80;;;12.80;99.90;;;;;;4921088;29;20092;-80
2022/05/27 03:59:39;;;;;;;8.10;1.92;;;12.80;99.90;;;;;;4907101;29;20079;-80
2022/05/27 04:02:05;;;;;;;8.45;2.30;;;12.90;99.90;;;;;;4894503;29;20523;-80
2022/05/27 04:04:31;;;;;;;8.85;2.15;;;12.80;99.90;;;;;;4905356;29;22111;-79
2022/05/27 04:06:57;;;;;;;11.70;2.42;;;12.90;99.90;;;;;;4919095;29;20063;-80
2022/05/27 04:09:24;;;;;;;10.18;2.17;;;12.90;99.90;;;;;;4909212;29;20406;-80
2022/05/27 04:11:51;;;;;;;10.40;2.40;;;12.90;99.90;;;;;;4906036;29;20066;-80
2022/05/27 04:14:18;;;;;;;7.60;2.33;;;12.90;99.90;;;;;;4902188;29;20056;-80
2022/05/27 04:16:44;;;;;;;9.23;2.53;;;13.00;99.90;;;;;;4891481;29;20054;-80
2022/05/27 04:19:09;;;;;;;7.72;2.05;;;13.00;99.90;;;;;;4920008;29;20048;-80
2022/05/27 04:21:37;;;;;;;10.77;2.60;;;13.00;99.90;;;;;;4902247;29;20100;-80
2022/05/27 04:24:03;;;;;;;10.80;2.47;;;13.00;99.90;;;;;;4903804;29;20443;-79
2022/05/27 04:26:29;;;;;;;10.05;2.53;;;13.00;99.90;;;;;;4916185;29;20052;-80
2022/05/27 04:28:54;;;;;;;10.07;2.25;;;12.90;99.90;;;;;;4908521;29;20119;-80
2022/05/27 04:31:20;;;;;;;8.45;2.28;;;12.90;99.90;;;;;;4893174;29;20135;-79
2022/05/27 04:33:46;;;;;;;9.20;2.38;;;12.90;99.90;;;;;;4899484;29;20498;-79
2022/05/27 04:36:15;;;;;;;9.57;2.55;;;12.90;99.90;;;;;;4915446;29;20052;-79
2022/05/27 04:38:41;;;;;;;10.48;2.22;;;12.90;99.90;;;;;;4903487;29;20494;-79
2022/05/27 04:41:06;;;;;;;10.57;2.20;;;12.90;99.90;;;;;;4892673;29;20513;-79
2022/05/27 04:43:33;;;;;;;7.75;2.08;;;12.90;99.90;;;;;;4892964;29;20045;-78
2022/05/27 04:46:00;;;;;;;11.18;2.40;;;12.90;99.90;;;;;;4919262;29;20455;-79
2022/05/27 04:48:27;;;;;;;11.05;2.30;;;13.00;99.90;;;;;;4902617;29;20124;-78
2022/05/27 04:50:53;;;;;;;10.68;2.50;;;12.90;99.90;;;;;;4909388;29;20048;-78
2022/05/27 04:53:19;;;;;;;10.32;2.25;;;12.90;99.90;;;;;;4908906;29;20044;-78
2022/05/27 04:55:45;;;;;;;8.40;2.13;;;12.90;99.90;;;;;;4887228;29;20104;-79
2022/05/27 04:58:12;;;;;;;10.82;2.20;;;12.90;99.90;;;;;;4907704;29;20052;-79
2022/05/27 05:00:44;;;;;;;9.77;2.17;;;12.80;99.90;;;;;;4887738;29;20079;-78
2022/05/27 05:03:11;;;;;;;12.88;2.53;;;12.80;99.90;;;;;;4906591;29;20088;-78
2022/05/27 05:05:39;;;;;;;6.93;2.47;;;12.80;99.90;;;;;;4910537;29;20048;-79
2022/05/27 05:08:36;;;;;;;11.40;2.45;;;12.80;99.90;;;;;;4915902;29;20048;-78
2022/05/27 05:11:04;;;;;;;10.23;2.35;;;12.80;99.90;;;;;;4921766;29;20048;-79
2022/05/27 05:13:31;;;;;;;8.60;2.30;;;12.80;99.90;;;;;;4888047;29;20143;-80
2022/05/27 05:15:58;;;;;;;9.90;2.78;;;12.90;99.90;;;;;;4904423;29;20059;-79
2022/05/27 05:18:24;;;;;;;8.07;2.08;;;12.90;99.90;;;;;;4919649;29;20052;-78
2022/05/27 05:20:50;;;;;;;13.25;3.05;;;13.00;99.90;;;;;;4906230;29;20052;-79
2022/05/27 05:23:16;;;;;;;14.48;2.70;;;13.00;99.90;;;;;;4906089;29;20040;-79
2022/05/27 05:25:42;;;;;;;11.00;2.58;;;13.00;99.90;;;;;;4889332;29;20107;-80
2022/05/27 05:28:07;;;;;;;7.43;2.03;;;13.00;99.90;;;;;;4874599;29;20075;-78
2022/05/27 05:30:34;;;;;;;10.68;2.63;;;13.00;99.90;;;;;;4921806;29;20143;-79
2022/05/27 05:32:59;;;;;;;6.72;2.13;;;13.00;99.90;;;;;;4906513;29;20417;-79
2022/05/27 05:35:25;;;;;;;11.00;2.35;;;13.00;99.90;;;;;;4923691;29;20058;-82
2022/05/27 05:37:51;;;;;;;6.22;2.15;;;13.00;99.90;;;;;;4910298;29;20102;-79
2022/05/27 05:40:17;;;;;;;12.20;2.10;;;12.90;99.90;;;;;;4910826;29;20045;-78
2022/05/27 05:42:43;;;;;;;10.10;2.20;;;12.90;99.90;;;;;;4904896;29;20509;-80
2022/05/27 05:45:12;;;;;;;7.63;2.30;;;12.90;99.90;;;;;;4913505;29;20071;-78
2022/05/27 05:47:37;;;;;;;8.77;2.10;;;12.90;99.90;;;;;;4910523;29;20060;-79
2022/05/27 05:50:04;;;;;;;7.28;2.28;;;12.90;99.90;;;;;;4879547;29;20067;-78
2022/05/27 05:52:29;;;;;;;10.43;2.28;;;12.90;99.90;;;;;;4888802;29;20107;-81
2022/05/27 05:54:55;;;;;;;9.48;2.38;;;13.00;99.90;;;;;;4920926;29;20056;-80
2022/05/27 05:57:21;;;;;;;8.98;2.33;;;13.00;99.90;;;;;;4873426;29;20080;-78
2022/05/27 05:59:47;;;;;;;7.80;1.85;;;13.10;99.90;;;;;;4917499;29;20068;-79
2022/05/27 06:02:13;;;;;;;6.22;2.25;;;13.10;99.90;;;;;;4908028;29;20058;-78
2022/05/27 06:04:39;;;;;;;10.25;2.20;;;13.20;99.90;;;;;;4905958;29;20045;-81
2022/05/27 06:07:04;;;;;;;7.15;2.10;;;13.30;99.90;;;;;;4873992;29;20119;-78
2022/05/27 06:09:30;;;;;;;10.25;2.50;;;13.30;99.90;;;;;;4904016;29;20486;-80
2022/05/27 06:11:57;;;;;;;8.38;2.30;;;13.40;99.90;;;;;;4887939;29;20048;-79
2022/05/27 06:14:23;;;;;;;7.63;2.58;;;13.40;99.90;;;;;;4910302;29;20082;-79
2022/05/27 06:16:49;;;;;;;8.52;2.35;;;13.50;99.90;;;;;;4905593;29;20075;-79
2022/05/27 06:19:15;;;;;;;10.98;2.35;;;13.50;99.90;;;;;;4920650;29;20048;-79
2022/05/27 06:21:41;;;;;;;8.50;2.20;;;13.60;99.90;;;;;;4911635;29;20059;-78
2022/05/27 06:24:07;;;;;;;10.70;2.95;;;13.60;99.90;;;;;;4904946;29;20194;-80
2022/05/27 06:26:33;;;;;;;7.82;2.30;;;13.60;99.90;;;;;;4888018;29;20052;-80
2022/05/27 06:34:28;;;;;;;8.50;2.47;;;13.90;99.90;;;;;;4898588;29;20048;-78
2022/05/27 06:37:08;;;;;;;12.05;2.55;;;13.80;99.90;;;;;;4911269;29;20048;-79
2022/05/27 06:39:36;;;;;;;8.15;2.00;;;13.80;99.90;;;;;;4906170;29;20123;-81
2022/05/27 06:42:10;;;;;;;8.20;2.40;;;13.80;99.90;;;;;;4895823;29;20115;-81
2022/05/27 06:44:36;;;;;;;8.63;2.17;;;14.00;99.90;;;;;;4910106;29;20462;-80
2022/05/27 06:47:04;;;;;;;9.73;2.33;;;14.20;99.90;;;;;;4914567;29;20099;-79
2022/05/27 06:49:29;;;;;;;11.48;2.45;;;14.10;99.90;;;;;;4917875;29;20132;-79
2022/05/27 06:51:55;;;;;;;8.77;2.45;;;14.10;99.90;;;;;;4896108;29;20084;-80
2022/05/27 06:54:22;;;;;;;8.98;2.35;;;14.10;99.90;;;;;;4915592;29;20663;-80
2022/05/27 06:56:52;;;;;;;7.35;2.20;;;14.10;99.90;;;;;;4879795;29;20135;-78
2022/05/27 06:59:20;;;;;;;10.02;2.50;;;14.20;99.90;;;;;;4918805;29;20138;-80
2022/05/27 07:01:46;;;;;;;11.50;2.83;;;14.20;99.90;;;;;;4888501;29;20055;-79
2022/05/27 07:04:12;;;;;;;9.60;2.95;;;14.40;99.90;;;;;;4902774;29;20052;-79
2022/05/27 07:06:43;;;;;;;14.55;3.20;;;14.50;99.90;;;;;;4919871;29;20058;-79
2022/05/27 07:09:19;;;;;;;12.07;3.20;;;14.70;99.90;;;;;;4909788;29;20056;-79
2022/05/27 07:11:48;;;;;;;6.30;2.10;;;14.70;99.90;;;;;;4904722;29;20056;-79
2022/05/27 07:14:14;;;;;;;10.25;2.47;;;14.60;99.90;;;;;;4902626;29;20082;-79
2022/05/27 07:16:41;;;;;;;10.05;2.47;;;14.50;99.90;;;;;;4888318;29;20044;-80
2022/05/27 07:19:07;;;;;;;9.35;2.55;;;14.60;99.90;;;;;;4894242;29;20123;-78
2022/05/27 07:21:42;;;;;;;10.80;2.70;;;14.70;99.90;;;;;;4903301;29;20136;-80
2022/05/27 07:24:09;;;;;;;11.70;2.42;;;14.90;99.90;;;;;;4908925;29;20521;-79
2022/05/27 07:26:37;;;;;;;11.55;2.40;;;15.20;99.90;;;;;;4901511;29;20052;-80
2022/05/27 07:29:03;;;;;;;8.45;2.40;;;15.30;99.90;;;;;;4888136;29;20087;-79
2022/05/27 07:31:29;;;;;;;10.40;2.70;;;15.30;99.90;;;;;;4878443;29;20260;-78
2022/05/27 07:33:56;;;;;;;8.27;2.42;;;15.30;99.90;;;;;;4886549;29;20053;-80
2022/05/27 07:36:21;;;;;;;9.27;2.30;;;15.50;99.90;;;;;;4903033;29;20056;-79
2022/05/27 07:38:51;;;;;;;10.15;2.63;;;15.70;99.90;;;;;;4909478;29;20107;-79
2022/05/27 07:41:17;;;;;;;7.97;2.25;;;15.80;99.90;;;;;;4893254;29;20052;-79
2022/05/27 07:43:44;;;;;;;7.90;2.30;;;15.90;99.90;;;;;;4871780;29;20483;-79
2022/05/27 07:46:11;;;;;;;7.63;2.20;;;15.90;99.90;;;;;;4907990;29;20058;-79
2022/05/27 07:48:37;;;;;;;8.63;2.22;;;16.00;99.90;;;;;;4908784;29;20099;-79
2022/05/27 07:51:03;;;;;;;6.95;1.88;;;16.00;99.90;;;;;;4916911;29;20079;-79
2022/05/27 07:53:29;;;;;;;11.43;2.10;;;15.90;99.90;;;;;;4919457;29;20060;-80
2022/05/27 07:55:54;;;;;;;9.50;2.33;;;16.00;99.90;;;;;;4918077;29;20071;-77
2022/05/27 07:58:20;;;;;;;5.45;2.13;;;15.90;99.90;;;;;;4903025;29;20580;-80
2022/05/27 08:00:46;;;;;;;8.68;2.00;;;15.70;99.90;;;;;;4918662;29;20554;-80
2022/05/27 08:03:12;;;;;;;11.40;2.35;;;15.70;99.90;;;;;;4894737;29;20112;-80
2022/05/27 08:05:39;;;;;;;5.75;1.90;;;15.70;99.90;;;;;;4902058;29;20061;-80
2022/05/27 08:08:06;;;;;;;8.43;3.03;;;15.80;99.90;;;;;;4894687;29;20055;-80
2022/05/27 08:10:34;;;;;;;10.68;2.60;;;15.90;99.90;;;;;;4918164;29;20052;-80
2022/05/27 08:13:00;;;;;;;7.63;2.00;;;16.00;99.90;;;;;;4909525;29;20056;-80
2022/05/27 08:15:27;;;;;;;9.93;2.28;;;16.20;99.90;;;;;;4918241;29;20066;-81
2022/05/27 08:17:53;;;;;;;9.27;2.22;;;16.20;99.90;;;;;;4887523;29;20554;-81
2022/05/27 08:20:22;;;;;;;12.23;2.70;;;16.40;99.90;;;;;;4902237;29;20650;-80
2022/05/27 08:22:49;;;;;;;8.63;2.05;;;16.30;99.90;;;;;;4902570;29;20550;-80
2022/05/27 08:25:16;;;;;;;8.30;2.65;;;16.20;99.90;;;;;;4901814;29;20067;-80
2022/05/27 08:27:42;;;;;;;9.27;2.60;;;16.10;99.90;;;;;;4917669;29;20510;-80
2022/05/27 08:30:10;;;;;;;8.40;2.20;;;16.00;99.90;;;;;;4902901;29;20095;-80
2022/05/27 08:32:37;;;;;;;9.30;2.45;;;15.90;99.90;;;;;;4910283;29;20045;-79
2022/05/27 08:40:44;;;;;;;7.25;1.92;;;15.60;99.90;;;;;;4908194;29;20052;-80
2022/05/27 08:43:22;;;;;;;8.02;2.13;;;15.80;99.90;;;;;;4907175;29;20058;-80
2022/05/27 08:46:10;;;;;;;9.27;2.55;;;15.90;99.90;;;;;;4922246;29;20836;-80
2022/05/27 08:48:40;;;;;;;8.95;3.15;;;16.10;99.90;;;;;;4908274;29;20056;-80
2022/05/27 08:51:23;;;;;;;8.30;2.30;;;16.30;99.90;;;;;;4924882;29;20112;-80
2022/05/27 08:53:54;;;;;;;9.00;2.20;;;16.60;99.90;;;;;;4910824;29;20061;-79
2022/05/27 08:59:27;;;;;;;9.18;2.83;;;16.80;99.90;;;;;;4912267;29;20049;-80
2022/05/27 09:02:06;;;;;;;7.97;2.35;;;16.90;99.90;;;;;;4913636;29;20055;-80
2022/05/27 09:04:40;;;;;;;8.48;2.50;;;17.00;99.90;;;;;;4921657;29;20048;-80
2022/05/27 09:07:30;;;;;;;6.55;1.92;;;17.40;99.90;;;;;;4904898;29;20709;-80
2022/05/27 09:09:57;;;;;;;9.45;1.80;;;17.40;99.90;;;;;;4913087;29;20387;-80
2022/05/27 09:12:49;;;;;;;7.88;2.08;;;17.40;99.70;;;;;;4906469;29;20047;-80
2022/05/27 09:15:37;;;;;;;8.27;2.67;;;17.10;99.40;;;;;;4912337;29;20060;-80
2022/05/27 09:18:19;;;;;;;6.75;1.73;;;17.20;99.90;;;;;;4921937;29;20059;-80
2022/05/27 09:21:02;;;;;;;10.43;2.35;;;17.20;99.90;;;;;;4921593;29;20056;-78
2022/05/27 09:23:48;;;;;;;10.02;2.40;;;17.30;99.90;;;;;;4912958;29;20052;-77
2022/05/27 09:26:45;;;;;;;5.90;2.00;;;17.20;99.90;;;;;;4912157;29;20087;-78
2022/05/27 09:29:10;;;;;;;7.82;2.00;;;17.20;99.90;;;;;;4905077;29;20342;-81
2022/05/27 09:31:42;;;;;;;10.48;2.50;;;17.10;99.90;;;;;;4906358;29;20510;-78
2022/05/27 09:34:10;;;;;;;6.82;2.30;;;16.80;99.90;;;;;;4921074;29;20063;-79
2022/05/27 09:36:40;;;;;;;8.30;2.10;;;16.80;99.90;;;;;;4896925;29;20044;-79
2022/05/27 09:39:10;;;;;;;7.25;2.20;;;16.90;99.90;;;;;;4889417;29;20380;-77
2022/05/27 09:42:02;;;;;;;11.00;2.72;;;16.90;99.90;;;;;;4912702;29;20052;-77
2022/05/27 09:44:50;;;;;;;7.28;2.60;;;16.70;99.90;;;;;;4914747;29;20063;-78
2022/05/27 09:47:18;;;;;;;5.78;1.95;;;16.40;99.90;;;;;;4911513;29;20079;-79
2022/05/27 09:49:46;;;;;;;8.27;2.50;;;16.20;99.90;;;;;;4881168;29;20052;-78
2022/05/27 09:52:12;;;;;;;10.35;2.53;;;15.90;99.90;;;;;;4910776;29;20126;-77
2022/05/27 09:54:49;;;;;;;10.98;2.40;;;16.10;99.90;;;;;;4920711;29;20052;-79
2022/05/27 09:57:23;;;;;;;7.47;2.10;;;16.20;99.90;;;;;;4911529;29;20383;-79
2022/05/27 09:59:56;;;;;;;7.38;2.42;;;16.50;99.90;;;;;;4912516;29;20048;-79
2022/05/27 10:02:36;;;;;;;11.13;2.72;;;16.80;99.90;;;;;;4910911;29;20048;-79
2022/05/27 10:05:16;;;;;;;9.52;2.80;;;17.00;99.90;;;;;;4905169;29;20060;-79
2022/05/27 10:07:49;;;;;;;7.57;2.25;;;16.90;99.90;;;;;;4921560;29;20071;-79
2022/05/27 10:10:18;;;;;;;7.03;2.17;;;17.00;99.90;;;;;;4911102;29;20091;-79
2022/05/27 10:12:43;;;;;;;8.82;2.17;;;17.00;99.90;;;;;;4910178;29;20071;-79
2022/05/27 10:15:28;;;;;;;9.02;2.60;;;17.10;99.90;;;;;;4920048;29;20214;-79
2022/05/27 10:17:53;;;;;;;9.02;2.53;;;17.20;99.90;;;;;;4905765;29;20076;-78
2022/05/27 10:20:31;;;;;;;8.73;2.25;;;17.00;99.90;;;;;;4925637;29;20076;-78
2022/05/27 10:23:05;;;;;;;11.55;2.15;;;16.80;99.90;;;;;;4916247;29;20063;-79
2022/05/27 10:25:40;;;;;;;10.30;2.10;;;16.90;99.90;;;;;;4903635;29;20052;-78
2022/05/27 10:28:08;;;;;;;8.27;2.25;;;16.70;99.90;;;;;;4904332;29;20048;-79
2022/05/27 10:30:38;;;;;;;8.95;2.75;;;16.30;99.90;;;;;;4896240;29;20044;-79
2022/05/27 10:33:23;;;;;;;10.45;2.50;;;16.40;99.90;;;;;;4920361;29;20080;-79
2022/05/27 10:35:51;;;;;;;10.52;2.47;;;16.40;99.90;;;;;;4905896;29;20050;-78
2022/05/27 10:38:45;;;;;;;10.63;2.15;;;16.80;99.90;;;;;;4903876;29;20067;-79
2022/05/27 10:41:36;;;;;;;9.55;2.65;;;16.80;99.90;;;;;;4919363;29;20103;-79
2022/05/27 10:44:27;;;;;;;7.28;2.30;;;16.50;99.90;;;;;;4904487;29;20052;-78
2022/05/27 10:46:58;;;;;;;9.20;2.67;;;16.30;99.90;;;;;;4918920;29;20060;-79
2022/05/27 10:49:43;;;;;;;15.43;3.03;;;16.10;99.90;;;;;;4895429;29;20129;-79
2022/05/27 10:52:23;;;;;;;9.82;2.70;;;16.20;99.90;;;;;;4911688;29;20059;-80
2022/05/27 10:55:19;;;;;;;10.68;2.50;;;16.30;99.90;;;;;;4894631;29;20055;-79
2022/05/27 11:04:18;;;;;;;9.52;2.30;;;16.50;99.90;;;;;;4903886;29;20060;-79
2022/05/27 11:07:22;;;;;;;11.02;2.63;;;16.20;99.90;;;;;;4903710;29;20075;-79
2022/05/27 11:10:10;;;;;;;11.68;2.50;;;15.80;99.90;;;;;;4905488;29;20051;-79
2022/05/27 11:15:44;;;;;;;8.10;2.80;;;15.40;99.90;;;;;;4909388;29;20044;-79
2022/05/27 11:18:37;;;;;;;13.30;3.15;;;15.40;99.90;;;;;;4903133;29;20075;-79
2022/05/27 11:21:18;;;;;;;10.23;2.60;;;15.50;99.90;;;;;;4910603;29;20914;-79
2022/05/27 11:24:24;;;;;;;12.35;2.75;;;15.70;99.90;;;;;;4920508;29;20056;-79
2022/05/27 11:27:15;;;;;;;8.55;2.38;;;16.10;99.90;;;;;;4902981;29;20502;-80
2022/05/27 11:30:07;;;;;;;9.95;2.90;;;15.90;99.90;;;;;;4910129;29;20432;-78
2022/05/27 11:33:06;;;;;;;7.65;2.75;;;15.80;99.90;;;;;;4882757;29;20139;-79
2022/05/27 11:35:46;;;;;;;11.50;2.75;;;15.80;99.90;;;;;;4901014;29;20055;-79
2022/05/27 11:38:12;;;;;;;9.55;2.85;;;16.00;99.90;;;;;;4887193;29;20060;-79
2022/05/27 11:40:43;;;;;;;8.45;2.47;;;16.00;99.90;;;;;;4918915;29;20047;-79
2022/05/27 11:43:21;;;;;;;8.30;2.90;;;15.90;99.90;;;;;;4910912;29;20446;-79
2022/05/27 11:46:12;;;;;;;11.40;2.92;;;15.60;99.90;;;;;;4918467;29;20056;-79
2022/05/27 11:48:40;;;;;;;10.00;2.97;;;16.00;99.90;;;;;;4903518;29;20124;-79
2022/05/27 11:51:34;;;;;;;11.02;2.83;;;16.10;99.90;;;;;;4902746;29;20521;-79
2022/05/27 11:54:22;;;;;;;12.13;2.45;;;16.10;99.90;;;;;;4902738;29;20053;-79
2022/05/27 11:57:01;;;;;;;6.57;2.13;;;16.30;99.90;;;;;;4909938;29;20045;-79
2022/05/27 11:59:38;;;;;;;9.63;2.80;;;16.20;99.90;;;;;;4904842;29;20135;-79
2022/05/27 12:02:07;;;;;;;12.23;3.33;;;16.10;99.90;;;;;;4902644;29;20048;-79
2022/05/27 12:04:46;;;;;;;13.88;2.80;;;15.30;99.90;;;;;;4901943;29;20055;-79
2022/05/27 12:07:41;;;;;;;11.05;2.50;;;16.20;99.90;;;;;;4893325;29;20056;-79
2022/05/27 12:10:21;;;;;;;9.52;2.75;;;16.20;99.90;;;;;;4910179;29;20100;-79
2022/05/27 12:12:51;;;;;;;10.30;2.72;;;16.50;99.90;;;;;;4907134;29;20491;-79
2022/05/27 12:15:42;;;;;;;8.43;2.42;;;16.90;99.90;;;;;;4912987;29;20549;-79
2022/05/27 12:18:14;;;;;;;9.55;2.45;;;16.80;99.90;;;;;;4908632;29;20156;-78
2022/05/27 12:20:40;;;;;;;9.55;2.13;;;16.80;99.90;;;;;;4907528;29;20055;-79
2022/05/27 12:23:09;;;;;;;11.20;2.40;;;16.50;99.90;;;;;;4907178;29;20052;-79
2022/05/27 12:25:46;;;;;;;8.60;2.47;;;16.70;99.90;;;;;;4912890;29;20804;-79
2022/05/27 12:28:16;;;;;;;7.30;2.50;;;16.90;99.90;;;;;;4913915;29;20055;-79
2022/05/27 12:30:43;;;;;;;11.40;2.55;;;17.00;99.90;;;;;;4913679;29;20451;-79
2022/05/27 12:33:23;;;;;;;7.90;2.17;;;17.30;99.90;;;;;;4891744;29;20202;-79
2022/05/27 12:36:20;;;;;;;10.38;2.35;;;17.20;99.90;;;;;;4897925;29;20071;-79
2022/05/27 12:38:48;;;;;;;11.85;2.92;;;17.20;99.90;;;;;;4906144;29;20060;-78
2022/05/27 12:41:41;;;;;;;11.15;2.35;;;17.60;99.90;;;;;;4906318;29;20058;-79
2022/05/27 12:44:14;;;;;;;7.38;2.00;;;18.10;99.90;;;;;;4897980;29;20060;-78
2022/05/27 12:46:44;;;;;;;7.95;2.45;;;18.00;99.90;;;;;;4905016;29;20080;-78
2022/05/27 12:49:33;;;;;;;9.85;2.80;;;17.90;99.90;;;;;;4905444;29;20067;-79
2022/05/27 12:52:00;;;;;;;10.93;3.30;;;17.70;99.90;;;;;;4892486;29;20098;-78
2022/05/27 12:54:48;;;;;;;10.25;2.65;;;17.60;99.90;;;;;;4905212;29;20060;-78
2022/05/27 13:03:33;;;;;;;11.90;2.30;;;17.50;99.90;;;;;;4913838;29;20487;-79
2022/05/27 13:06:19;;;;;;;12.93;2.45;;;17.30;99.90;;;;;;4905240;29;20063;-79
2022/05/27 13:08:46;;;;;;;9.27;2.25;;;17.10;99.90;;;;;;4912933;29;20057;-79
2022/05/27 13:11:31;;;;;;;8.60;2.60;;;17.30;99.90;;;;;;4912295;29;20564;-79
2022/05/27 13:14:03;;;;;;;9.50;2.17;;;17.30;99.90;;;;;;4913502;29;20058;-79
2022/05/27 13:16:52;;;;;;;10.80;2.22;;;17.60;99.90;;;;;;4921897;29;20092;-80
2022/05/27 13:19:28;;;;;;;7.72;2.10;;;17.50;99.90;;;;;;4904754;29;20056;-79
2022/05/27 13:21:56;;;;;;;8.60;2.28;;;17.60;99.90;;;;;;4904504;29;20060;-79
2022/05/27 13:24:38;;;;;;;10.00;2.47;;;18.10;99.90;;;;;;4905889;29;20110;-79
2022/05/27 13:27:24;;;;;;;7.00;2.15;;;18.10;99.90;;;;;;4896512;29;20051;-79
2022/05/27 13:29:53;;;;;;;8.43;2.53;;;18.00;99.90;;;;;;4905138;29;20516;-79
2022/05/27 13:32:24;;;;;;;11.45;2.97;;;17.90;99.90;;;;;;4906870;29;20052;-80
2022/05/27 13:35:09;;;;;;;10.05;2.00;;;17.60;99.90;;;;;;4905220;29;20056;-79
2022/05/27 13:37:38;;;;;;;10.25;2.55;;;17.60;99.90;;;;;;4920845;29;20517;-79
2022/05/27 13:40:08;;;;;;;10.52;2.40;;;17.60;99.90;;;;;;4906481;29;20096;-79
2022/05/27 13:42:44;;;;;;;7.18;2.17;;;17.50;99.90;;;;;;4911783;29;20131;-79
2022/05/27 13:45:30;;;;;;;10.25;2.13;;;17.60;99.90;;;;;;4922097;29;20056;-77
2022/05/27 13:47:58;;;;;;;10.52;1.95;;;17.50;99.90;;;;;;4889954;29;20055;-78
2022/05/27 13:50:34;;;;;;;8.45;2.30;;;17.40;99.90;;;;;;4912578;29;20142;-79